sensor_id;sensor_type;location;lat;lon;timestamp;P1;durP1;ratioP1;P2;durP2;ratioP2
6671;SDS011;3372;48.690;12.362;2023-12-20T00:01:46;11.00;;;8.15;;
6671;SDS011;3372;48.690;12.362;2023-12-20T00:04:12;14.73;;;8.82;;
6671;SDS011;3372;48.690;12.362;2023-12-20T00:06:37;9.73;;;7.45;;
6671;SDS011;3372;48.690;12.362;2023-12-20T00:09:03;13.73;;;9.05;;
6671;SDS011;3372;48.690;12.362;2023-12-20T00:11:30;12.13;;;8.38;;
6671;SDS011;3372;48.690;12.362;2023-12-20T00:13:56;12.73;;;9.00;;
6671;SDS011;3372;48.690;12.362;2023-12-20T00:16:21;12.20;;;7.93;;
6671;SDS011;3372;48.690;12.362;2023-12-20T00:18:47;10.20;;;7.97;;
6671;SDS011;3372;48.690;12.362;2023-12-20T00:21:12;12.10;;;8.02;;
6671;SDS011;3372;48.690;12.362;2023-12-20T00:23:38;10.68;;;8.10;;
6671;SDS011;3372;48.690;12.362;2023-12-20T00:26:03;13.23;;;8.52;;
6671;SDS011;3372;48.690;12.362;2023-12-20T00:28:30;10.63;;;7.38;;
6671;SDS011;3372;48.690;12.362;2023-12-20T00:30:56;11.02;;;6.70;;
6671;SDS011;3372;48.690;12.362;2023-12-20T00:33:21;8.10;;;5.93;;
6671;SDS011;3372;48.690;12.362;2023-12-20T00:35:47;8.48;;;5.63;;
6671;SDS011;3372;48.690;12.362;2023-12-20T00:38:13;8.52;;;5.47;;
6671;SDS011;3372;48.690;12.362;2023-12-20T00:40:38;8.20;;;5.85;;
6671;SDS011;3372;48.690;12.362;2023-12-20T00:43:04;8.57;;;5.22;;
6671;SDS011;3372;48.690;12.362;2023-12-20T00:45:29;7.82;;;5.07;;
6671;SDS011;3372;48.690;12.362;2023-12-20T00:47:55;7.00;;;4.47;;
6671;SDS011;3372;48.690;12.362;2023-12-20T00:50:20;7.40;;;5.28;;
6671;SDS011;3372;48.690;12.362;2023-12-20T00:52:46;8.07;;;5.50;;
6671;SDS011;3372;48.690;12.362;2023-12-20T00:55:12;8.10;;;5.00;;
6671;SDS011;3372;48.690;12.362;2023-12-20T00:57:39;7.72;;;5.43;;
6671;SDS011;3372;48.690;12.362;2023-12-20T01:00:05;9.07;;;5.03;;
6671;SDS011;3372;48.690;12.362;2023-12-20T01:02:31;9.13;;;5.00;;
6671;SDS011;3372;48.690;12.362;2023-12-20T01:04:57;7.10;;;4.45;;
6671;SDS011;3372;48.690;12.362;2023-12-20T01:07:22;8.13;;;4.68;;
6671;SDS011;3372;48.690;12.362;2023-12-20T01:09:48;7.30;;;5.20;;
6671;SDS011;3372;48.690;12.362;2023-12-20T01:12:13;6.13;;;4.38;;
6671;SDS011;3372;48.690;12.362;2023-12-20T01:14:39;7.63;;;4.20;;
6671;SDS011;3372;48.690;12.362;2023-12-20T01:17:05;6.78;;;4.35;;
6671;SDS011;3372;48.690;12.362;2023-12-20T01:19:31;6.60;;;4.35;;
6671;SDS011;3372;48.690;12.362;2023-12-20T01:21:56;6.45;;;4.32;;
6671;SDS011;3372;48.690;12.362;2023-12-20T01:24:22;7.00;;;4.38;;
6671;SDS011;3372;48.690;12.362;2023-12-20T01:26:47;6.63;;;4.28;;
6671;SDS011;3372;48.690;12.362;2023-12-20T01:29:13;5.78;;;4.05;;
6671;SDS011;3372;48.690;12.362;2023-12-20T01:31:40;5.55;;;3.85;;
6671;SDS011;3372;48.690;12.362;2023-12-20T01:34:05;7.28;;;4.15;;
6671;SDS011;3372;48.690;12.362;2023-12-20T01:36:31;6.70;;;3.75;;
6671;SDS011;3372;48.690;12.362;2023-12-20T01:38:57;5.30;;;3.40;;
6671;SDS011;3372;48.690;12.362;2023-12-20T01:41:23;6.53;;;4.13;;
6671;SDS011;3372;48.690;12.362;2023-12-20T01:43:48;5.45;;;3.58;;
6671;SDS011;3372;48.690;12.362;2023-12-20T01:46:14;5.45;;;3.45;;
6671;SDS011;3372;48.690;12.362;2023-12-20T01:48:40;5.05;;;3.22;;
6671;SDS011;3372;48.690;12.362;2023-12-20T01:51:06;4.68;;;2.75;;
6671;SDS011;3372;48.690;12.362;2023-12-20T01:53:32;5.53;;;3.20;;
6671;SDS011;3372;48.690;12.362;2023-12-20T01:55:58;4.70;;;3.00;;
6671;SDS011;3372;48.690;12.362;2023-12-20T01:58:24;6.57;;;3.33;;
6671;SDS011;3372;48.690;12.362;2023-12-20T02:00:50;4.75;;;2.65;;
6671;SDS011;3372;48.690;12.362;2023-12-20T02:03:16;5.03;;;3.00;;
6671;SDS011;3372;48.690;12.362;2023-12-20T02:05:43;4.35;;;2.92;;
6671;SDS011;3372;48.690;12.362;2023-12-20T02:08:10;4.78;;;2.83;;
6671;SDS011;3372;48.690;12.362;2023-12-20T02:10:39;5.20;;;3.25;;
6671;SDS011;3372;48.690;12.362;2023-12-20T02:13:05;5.47;;;3.38;;
6671;SDS011;3372;48.690;12.362;2023-12-20T02:15:31;5.57;;;3.90;;
6671;SDS011;3372;48.690;12.362;2023-12-20T02:17:56;5.05;;;3.70;;
6671;SDS011;3372;48.690;12.362;2023-12-20T02:20:22;5.38;;;3.50;;
6671;SDS011;3372;48.690;12.362;2023-12-20T02:22:48;4.97;;;3.03;;
6671;SDS011;3372;48.690;12.362;2023-12-20T02:25:13;6.15;;;3.50;;
6671;SDS011;3372;48.690;12.362;2023-12-20T02:27:39;4.90;;;3.15;;
6671;SDS011;3372;48.690;12.362;2023-12-20T02:30:05;5.75;;;3.60;;
6671;SDS011;3372;48.690;12.362;2023-12-20T02:32:31;5.35;;;3.50;;
6671;SDS011;3372;48.690;12.362;2023-12-20T02:34:57;4.75;;;3.13;;
6671;SDS011;3372;48.690;12.362;2023-12-20T02:37:22;5.93;;;4.10;;
6671;SDS011;3372;48.690;12.362;2023-12-20T02:39:48;4.97;;;3.50;;
6671;SDS011;3372;48.690;12.362;2023-12-20T02:42:14;5.47;;;4.13;;
6671;SDS011;3372;48.690;12.362;2023-12-20T02:44:39;5.82;;;4.00;;
6671;SDS011;3372;48.690;12.362;2023-12-20T02:47:05;5.45;;;3.33;;
6671;SDS011;3372;48.690;12.362;2023-12-20T02:49:30;5.25;;;3.30;;
6671;SDS011;3372;48.690;12.362;2023-12-20T02:51:56;5.47;;;3.67;;
6671;SDS011;3372;48.690;12.362;2023-12-20T02:54:21;4.68;;;3.33;;
6671;SDS011;3372;48.690;12.362;2023-12-20T02:56:47;4.80;;;3.13;;
6671;SDS011;3372;48.690;12.362;2023-12-20T02:59:14;5.03;;;3.63;;
6671;SDS011;3372;48.690;12.362;2023-12-20T03:01:45;4.97;;;3.30;;
6671;SDS011;3372;48.690;12.362;2023-12-20T03:04:11;6.40;;;2.90;;
6671;SDS011;3372;48.690;12.362;2023-12-20T03:06:37;4.70;;;3.30;;
6671;SDS011;3372;48.690;12.362;2023-12-20T03:09:03;4.40;;;2.90;;
6671;SDS011;3372;48.690;12.362;2023-12-20T03:11:29;3.92;;;3.05;;
6671;SDS011;3372;48.690;12.362;2023-12-20T03:13:55;4.38;;;3.00;;
6671;SDS011;3372;48.690;12.362;2023-12-20T03:16:21;4.55;;;3.05;;
6671;SDS011;3372;48.690;12.362;2023-12-20T03:18:46;5.60;;;3.05;;
6671;SDS011;3372;48.690;12.362;2023-12-20T03:21:12;4.82;;;2.97;;
6671;SDS011;3372;48.690;12.362;2023-12-20T03:23:37;4.05;;;2.58;;
6671;SDS011;3372;48.690;12.362;2023-12-20T03:26:03;4.70;;;3.03;;
6671;SDS011;3372;48.690;12.362;2023-12-20T03:28:32;4.30;;;2.67;;
6671;SDS011;3372;48.690;12.362;2023-12-20T03:30:57;5.45;;;2.65;;
6671;SDS011;3372;48.690;12.362;2023-12-20T03:33:23;4.35;;;2.60;;
6671;SDS011;3372;48.690;12.362;2023-12-20T03:35:50;5.65;;;2.42;;
6671;SDS011;3372;48.690;12.362;2023-12-20T03:38:15;5.50;;;2.53;;
6671;SDS011;3372;48.690;12.362;2023-12-20T03:40:41;5.25;;;2.90;;
6671;SDS011;3372;48.690;12.362;2023-12-20T03:43:06;4.85;;;2.92;;
6671;SDS011;3372;48.690;12.362;2023-12-20T03:45:32;4.97;;;2.75;;
6671;SDS011;3372;48.690;12.362;2023-12-20T03:47:58;5.20;;;2.90;;
6671;SDS011;3372;48.690;12.362;2023-12-20T03:50:23;4.03;;;2.90;;
6671;SDS011;3372;48.690;12.362;2023-12-20T03:52:49;5.38;;;3.00;;
6671;SDS011;3372;48.690;12.362;2023-12-20T03:55:14;4.25;;;2.83;;
6671;SDS011;3372;48.690;12.362;2023-12-20T03:57:40;5.13;;;2.60;;
6671;SDS011;3372;48.690;12.362;2023-12-20T04:00:07;4.95;;;2.80;;
6671;SDS011;3372;48.690;12.362;2023-12-20T04:02:36;4.72;;;2.67;;
6671;SDS011;3372;48.690;12.362;2023-12-20T04:05:02;3.47;;;2.00;;
6671;SDS011;3372;48.690;12.362;2023-12-20T04:07:28;3.92;;;2.08;;
6671;SDS011;3372;48.690;12.362;2023-12-20T04:09:54;6.30;;;3.22;;
6671;SDS011;3372;48.690;12.362;2023-12-20T04:12:20;3.65;;;1.92;;
6671;SDS011;3372;48.690;12.362;2023-12-20T04:14:46;5.63;;;2.60;;
6671;SDS011;3372;48.690;12.362;2023-12-20T04:17:11;4.20;;;2.33;;
6671;SDS011;3372;48.690;12.362;2023-12-20T04:19:37;4.22;;;1.75;;
6671;SDS011;3372;48.690;12.362;2023-12-20T04:22:02;4.97;;;2.53;;
6671;SDS011;3372;48.690;12.362;2023-12-20T04:24:28;3.28;;;1.55;;
6671;SDS011;3372;48.690;12.362;2023-12-20T04:26:53;2.95;;;1.65;;
6671;SDS011;3372;48.690;12.362;2023-12-20T04:29:19;6.22;;;1.63;;
6671;SDS011;3372;48.690;12.362;2023-12-20T04:31:45;3.03;;;1.48;;
6671;SDS011;3372;48.690;12.362;2023-12-20T04:34:10;3.58;;;1.83;;
6671;SDS011;3372;48.690;12.362;2023-12-20T04:36:36;2.70;;;1.42;;
6671;SDS011;3372;48.690;12.362;2023-12-20T04:39:01;2.88;;;1.65;;
6671;SDS011;3372;48.690;12.362;2023-12-20T04:41:27;3.75;;;1.80;;
6671;SDS011;3372;48.690;12.362;2023-12-20T04:43:53;3.22;;;1.88;;
6671;SDS011;3372;48.690;12.362;2023-12-20T04:46:19;3.13;;;1.67;;
6671;SDS011;3372;48.690;12.362;2023-12-20T04:48:44;2.40;;;1.45;;
6671;SDS011;3372;48.690;12.362;2023-12-20T04:51:10;3.80;;;1.90;;
6671;SDS011;3372;48.690;12.362;2023-12-20T04:53:35;3.05;;;1.88;;
6671;SDS011;3372;48.690;12.362;2023-12-20T04:56:01;2.70;;;1.63;;
6671;SDS011;3372;48.690;12.362;2023-12-20T04:58:26;3.25;;;1.67;;
6671;SDS011;3372;48.690;12.362;2023-12-20T05:00:52;3.67;;;1.67;;
6671;SDS011;3372;48.690;12.362;2023-12-20T05:03:18;3.47;;;1.80;;
6671;SDS011;3372;48.690;12.362;2023-12-20T05:05:43;4.13;;;1.98;;
6671;SDS011;3372;48.690;12.362;2023-12-20T05:08:09;4.57;;;2.10;;
6671;SDS011;3372;48.690;12.362;2023-12-20T05:10:34;4.28;;;1.73;;
6671;SDS011;3372;48.690;12.362;2023-12-20T05:13:01;3.38;;;2.20;;
6671;SDS011;3372;48.690;12.362;2023-12-20T05:15:27;3.50;;;1.75;;
6671;SDS011;3372;48.690;12.362;2023-12-20T05:17:53;4.50;;;1.80;;
6671;SDS011;3372;48.690;12.362;2023-12-20T05:20:18;4.05;;;1.60;;
6671;SDS011;3372;48.690;12.362;2023-12-20T05:22:44;4.07;;;2.20;;
6671;SDS011;3372;48.690;12.362;2023-12-20T05:25:10;3.70;;;1.92;;
6671;SDS011;3372;48.690;12.362;2023-12-20T05:27:35;3.35;;;2.15;;
6671;SDS011;3372;48.690;12.362;2023-12-20T05:30:01;3.42;;;2.13;;
6671;SDS011;3372;48.690;12.362;2023-12-20T05:32:27;3.83;;;2.10;;
6671;SDS011;3372;48.690;12.362;2023-12-20T05:34:52;3.25;;;2.15;;
6671;SDS011;3372;48.690;12.362;2023-12-20T05:37:18;5.75;;;2.90;;
6671;SDS011;3372;48.690;12.362;2023-12-20T05:39:43;6.00;;;2.65;;
6671;SDS011;3372;48.690;12.362;2023-12-20T05:42:09;6.43;;;3.80;;
6671;SDS011;3372;48.690;12.362;2023-12-20T05:44:34;3.95;;;2.45;;
6671;SDS011;3372;48.690;12.362;2023-12-20T05:47:00;5.47;;;3.15;;
6671;SDS011;3372;48.690;12.362;2023-12-20T05:49:26;12.02;;;6.20;;
6671;SDS011;3372;48.690;12.362;2023-12-20T05:51:51;4.00;;;2.60;;
6671;SDS011;3372;48.690;12.362;2023-12-20T05:54:17;5.28;;;3.90;;
6671;SDS011;3372;48.690;12.362;2023-12-20T05:56:42;4.85;;;4.22;;
6671;SDS011;3372;48.690;12.362;2023-12-20T05:59:08;3.42;;;2.25;;
6671;SDS011;3372;48.690;12.362;2023-12-20T06:01:34;3.85;;;2.20;;
6671;SDS011;3372;48.690;12.362;2023-12-20T06:03:59;3.83;;;2.30;;
6671;SDS011;3372;48.690;12.362;2023-12-20T06:06:25;3.15;;;1.90;;
6671;SDS011;3372;48.690;12.362;2023-12-20T06:08:50;3.58;;;1.73;;
6671;SDS011;3372;48.690;12.362;2023-12-20T06:11:16;3.70;;;1.90;;
6671;SDS011;3372;48.690;12.362;2023-12-20T06:13:42;2.70;;;1.80;;
6671;SDS011;3372;48.690;12.362;2023-12-20T06:16:07;3.47;;;2.08;;
6671;SDS011;3372;48.690;12.362;2023-12-20T06:18:33;2.55;;;1.83;;
6671;SDS011;3372;48.690;12.362;2023-12-20T06:20:58;2.67;;;1.58;;
6671;SDS011;3372;48.690;12.362;2023-12-20T06:23:24;2.53;;;1.58;;
6671;SDS011;3372;48.690;12.362;2023-12-20T06:25:50;2.95;;;1.58;;
6671;SDS011;3372;48.690;12.362;2023-12-20T06:28:15;2.90;;;1.50;;
6671;SDS011;3372;48.690;12.362;2023-12-20T06:30:41;2.67;;;1.30;;
6671;SDS011;3372;48.690;12.362;2023-12-20T06:33:06;2.30;;;1.05;;
6671;SDS011;3372;48.690;12.362;2023-12-20T06:35:32;2.63;;;1.40;;
6671;SDS011;3372;48.690;12.362;2023-12-20T06:37:58;1.67;;;0.98;;
6671;SDS011;3372;48.690;12.362;2023-12-20T06:40:23;3.17;;;1.10;;
6671;SDS011;3372;48.690;12.362;2023-12-20T06:42:49;2.42;;;1.52;;
6671;SDS011;3372;48.690;12.362;2023-12-20T06:45:14;2.45;;;1.13;;
6671;SDS011;3372;48.690;12.362;2023-12-20T06:47:40;2.20;;;1.23;;
6671;SDS011;3372;48.690;12.362;2023-12-20T06:50:06;2.42;;;1.40;;
6671;SDS011;3372;48.690;12.362;2023-12-20T06:54:58;2.42;;;1.05;;
6671;SDS011;3372;48.690;12.362;2023-12-20T06:57:24;2.63;;;1.15;;
6671;SDS011;3372;48.690;12.362;2023-12-20T06:59:51;2.42;;;1.05;;
6671;SDS011;3372;48.690;12.362;2023-12-20T07:02:17;2.10;;;1.20;;
6671;SDS011;3372;48.690;12.362;2023-12-20T07:04:42;2.95;;;1.10;;
6671;SDS011;3372;48.690;12.362;2023-12-20T07:07:08;1.85;;;0.90;;
6671;SDS011;3372;48.690;12.362;2023-12-20T07:09:33;3.47;;;1.48;;
6671;SDS011;3372;48.690;12.362;2023-12-20T07:11:59;2.85;;;1.30;;
6671;SDS011;3372;48.690;12.362;2023-12-20T07:14:25;4.00;;;2.08;;
6671;SDS011;3372;48.690;12.362;2023-12-20T07:16:50;4.10;;;1.88;;
6671;SDS011;3372;48.690;12.362;2023-12-20T07:19:16;3.35;;;1.70;;
6671;SDS011;3372;48.690;12.362;2023-12-20T07:21:42;2.53;;;1.38;;
6671;SDS011;3372;48.690;12.362;2023-12-20T07:24:07;2.58;;;1.38;;
6671;SDS011;3372;48.690;12.362;2023-12-20T07:26:33;2.10;;;1.05;;
6671;SDS011;3372;48.690;12.362;2023-12-20T07:28:59;3.13;;;1.70;;
6671;SDS011;3372;48.690;12.362;2023-12-20T07:31:24;2.20;;;1.27;;
6671;SDS011;3372;48.690;12.362;2023-12-20T07:33:50;2.30;;;1.30;;
6671;SDS011;3372;48.690;12.362;2023-12-20T07:36:15;2.17;;;1.30;;
6671;SDS011;3372;48.690;12.362;2023-12-20T07:38:41;2.25;;;1.20;;
6671;SDS011;3372;48.690;12.362;2023-12-20T07:41:09;2.97;;;1.85;;
6671;SDS011;3372;48.690;12.362;2023-12-20T07:43:41;2.30;;;1.40;;
6671;SDS011;3372;48.690;12.362;2023-12-20T07:46:07;3.30;;;1.33;;
6671;SDS011;3372;48.690;12.362;2023-12-20T07:48:37;2.60;;;1.30;;
6671;SDS011;3372;48.690;12.362;2023-12-20T07:51:03;2.75;;;1.30;;
6671;SDS011;3372;48.690;12.362;2023-12-20T07:53:29;2.70;;;1.73;;
6671;SDS011;3372;48.690;12.362;2023-12-20T07:55:55;3.58;;;1.40;;
6671;SDS011;3372;48.690;12.362;2023-12-20T07:58:20;9.52;;;7.45;;
6671;SDS011;3372;48.690;12.362;2023-12-20T08:00:46;5.13;;;2.83;;
6671;SDS011;3372;48.690;12.362;2023-12-20T08:03:12;7.53;;;4.95;;
6671;SDS011;3372;48.690;12.362;2023-12-20T08:05:38;10.82;;;6.47;;
6671;SDS011;3372;48.690;12.362;2023-12-20T08:08:06;13.95;;;11.02;;
6671;SDS011;3372;48.690;12.362;2023-12-20T08:10:32;10.77;;;8.80;;
6671;SDS011;3372;48.690;12.362;2023-12-20T08:12:58;3.42;;;2.47;;
6671;SDS011;3372;48.690;12.362;2023-12-20T08:15:23;3.67;;;2.88;;
6671;SDS011;3372;48.690;12.362;2023-12-20T08:17:49;2.85;;;1.88;;
6671;SDS011;3372;48.690;12.362;2023-12-20T08:20:18;2.60;;;1.65;;
6671;SDS011;3372;48.690;12.362;2023-12-20T08:22:43;4.28;;;1.88;;
6671;SDS011;3372;48.690;12.362;2023-12-20T08:25:09;2.83;;;1.73;;
6671;SDS011;3372;48.690;12.362;2023-12-20T08:27:41;3.28;;;1.92;;
6671;SDS011;3372;48.690;12.362;2023-12-20T08:30:08;2.65;;;1.75;;
6671;SDS011;3372;48.690;12.362;2023-12-20T08:32:34;3.08;;;2.20;;
6671;SDS011;3372;48.690;12.362;2023-12-20T08:34:59;3.47;;;1.58;;
6671;SDS011;3372;48.690;12.362;2023-12-20T08:37:25;2.70;;;1.80;;
6671;SDS011;3372;48.690;12.362;2023-12-20T08:39:51;3.63;;;2.45;;
6671;SDS011;3372;48.690;12.362;2023-12-20T08:42:16;2.53;;;1.45;;
6671;SDS011;3372;48.690;12.362;2023-12-20T08:44:42;3.00;;;1.52;;
6671;SDS011;3372;48.690;12.362;2023-12-20T08:47:07;4.03;;;1.48;;
6671;SDS011;3372;48.690;12.362;2023-12-20T08:49:33;2.88;;;1.88;;
6671;SDS011;3372;48.690;12.362;2023-12-20T08:51:58;2.78;;;1.80;;
6671;SDS011;3372;48.690;12.362;2023-12-20T08:54:24;3.70;;;1.50;;
6671;SDS011;3372;48.690;12.362;2023-12-20T08:56:49;2.47;;;1.77;;
6671;SDS011;3372;48.690;12.362;2023-12-20T08:59:15;2.45;;;1.55;;
6671;SDS011;3372;48.690;12.362;2023-12-20T09:01:41;2.22;;;1.58;;
6671;SDS011;3372;48.690;12.362;2023-12-20T09:04:06;2.92;;;1.48;;
6671;SDS011;3372;48.690;12.362;2023-12-20T09:06:32;1.95;;;1.00;;
6671;SDS011;3372;48.690;12.362;2023-12-20T09:08:57;3.08;;;1.88;;
6671;SDS011;3372;48.690;12.362;2023-12-20T09:11:23;2.10;;;1.30;;
6671;SDS011;3372;48.690;12.362;2023-12-20T09:13:48;2.03;;;1.33;;
6671;SDS011;3372;48.690;12.362;2023-12-20T09:16:14;2.65;;;1.65;;
6671;SDS011;3372;48.690;12.362;2023-12-20T09:18:41;2.92;;;1.83;;
6671;SDS011;3372;48.690;12.362;2023-12-20T09:21:07;2.60;;;1.60;;
6671;SDS011;3372;48.690;12.362;2023-12-20T09:23:33;2.78;;;1.33;;
6671;SDS011;3372;48.690;12.362;2023-12-20T09:25:58;2.05;;;1.20;;
6671;SDS011;3372;48.690;12.362;2023-12-20T09:28:24;2.75;;;1.70;;
6671;SDS011;3372;48.690;12.362;2023-12-20T09:30:49;2.88;;;1.58;;
6671;SDS011;3372;48.690;12.362;2023-12-20T09:33:15;2.72;;;1.30;;
6671;SDS011;3372;48.690;12.362;2023-12-20T09:35:41;2.58;;;1.50;;
6671;SDS011;3372;48.690;12.362;2023-12-20T09:38:07;2.03;;;1.33;;
6671;SDS011;3372;48.690;12.362;2023-12-20T09:40:33;3.17;;;1.20;;
6671;SDS011;3372;48.690;12.362;2023-12-20T09:43:04;2.80;;;1.52;;
6671;SDS011;3372;48.690;12.362;2023-12-20T09:45:33;3.05;;;1.17;;
6671;SDS011;3372;48.690;12.362;2023-12-20T09:47:59;2.60;;;1.33;;
6671;SDS011;3372;48.690;12.362;2023-12-20T09:50:25;3.38;;;1.30;;
6671;SDS011;3372;48.690;12.362;2023-12-20T09:52:52;3.72;;;1.65;;
6671;SDS011;3372;48.690;12.362;2023-12-20T09:55:18;2.65;;;1.63;;
6671;SDS011;3372;48.690;12.362;2023-12-20T09:57:45;2.65;;;1.70;;
6671;SDS011;3372;48.690;12.362;2023-12-20T10:00:12;2.75;;;1.98;;
6671;SDS011;3372;48.690;12.362;2023-12-20T10:02:38;3.05;;;2.00;;
6671;SDS011;3372;48.690;12.362;2023-12-20T10:05:10;3.70;;;2.33;;
6671;SDS011;3372;48.690;12.362;2023-12-20T10:07:41;2.80;;;2.10;;
6671;SDS011;3372;48.690;12.362;2023-12-20T10:10:07;3.08;;;1.67;;
6671;SDS011;3372;48.690;12.362;2023-12-20T10:12:33;4.25;;;1.83;;
6671;SDS011;3372;48.690;12.362;2023-12-20T10:14:59;3.20;;;1.85;;
6671;SDS011;3372;48.690;12.362;2023-12-20T10:17:25;3.67;;;2.45;;
6671;SDS011;3372;48.690;12.362;2023-12-20T10:19:54;4.45;;;2.15;;
6671;SDS011;3372;48.690;12.362;2023-12-20T10:22:19;3.30;;;2.40;;
6671;SDS011;3372;48.690;12.362;2023-12-20T10:24:46;3.10;;;2.50;;
6671;SDS011;3372;48.690;12.362;2023-12-20T10:27:12;3.75;;;2.35;;
6671;SDS011;3372;48.690;12.362;2023-12-20T10:29:37;3.15;;;2.28;;
6671;SDS011;3372;48.690;12.362;2023-12-20T10:34:49;2.78;;;1.90;;
6671;SDS011;3372;48.690;12.362;2023-12-20T10:37:15;3.65;;;2.20;;
6671;SDS011;3372;48.690;12.362;2023-12-20T10:39:42;2.22;;;1.60;;
6671;SDS011;3372;48.690;12.362;2023-12-20T10:42:08;3.28;;;1.70;;
6671;SDS011;3372;48.690;12.362;2023-12-20T10:44:36;2.10;;;1.30;;
6671;SDS011;3372;48.690;12.362;2023-12-20T10:47:02;2.38;;;1.50;;
6671;SDS011;3372;48.690;12.362;2023-12-20T10:49:29;2.75;;;1.27;;
6671;SDS011;3372;48.690;12.362;2023-12-20T10:51:56;2.15;;;1.20;;
6671;SDS011;3372;48.690;12.362;2023-12-20T10:54:24;2.60;;;1.50;;
6671;SDS011;3372;48.690;12.362;2023-12-20T10:56:50;2.38;;;1.33;;
6671;SDS011;3372;48.690;12.362;2023-12-20T10:59:18;1.73;;;1.00;;
6671;SDS011;3372;48.690;12.362;2023-12-20T11:01:45;2.08;;;1.10;;
6671;SDS011;3372;48.690;12.362;2023-12-20T11:04:15;2.63;;;1.55;;
6671;SDS011;3372;48.690;12.362;2023-12-20T11:06:49;1.88;;;1.13;;
6671;SDS011;3372;48.690;12.362;2023-12-20T11:09:21;2.00;;;1.13;;
6671;SDS011;3372;48.690;12.362;2023-12-20T11:17:10;1.77;;;1.10;;
6671;SDS011;3372;48.690;12.362;2023-12-20T11:22:26;2.70;;;1.35;;
6671;SDS011;3372;48.690;12.362;2023-12-20T11:24:54;1.80;;;1.25;;
6671;SDS011;3372;48.690;12.362;2023-12-20T11:27:27;2.70;;;1.63;;
6671;SDS011;3372;48.690;12.362;2023-12-20T11:29:54;1.90;;;1.20;;
6671;SDS011;3372;48.690;12.362;2023-12-20T11:34:53;2.58;;;1.73;;
6671;SDS011;3372;48.690;12.362;2023-12-20T11:37:28;1.98;;;1.40;;
6671;SDS011;3372;48.690;12.362;2023-12-20T11:40:05;3.03;;;1.98;;
6671;SDS011;3372;48.690;12.362;2023-12-20T11:42:38;2.10;;;1.40;;
6671;SDS011;3372;48.690;12.362;2023-12-20T11:45:05;1.95;;;1.10;;
6671;SDS011;3372;48.690;12.362;2023-12-20T11:47:33;2.20;;;1.23;;
6671;SDS011;3372;48.690;12.362;2023-12-20T11:50:00;1.88;;;1.00;;
6671;SDS011;3372;48.690;12.362;2023-12-20T11:52:28;1.27;;;0.60;;
6671;SDS011;3372;48.690;12.362;2023-12-20T11:54:54;1.65;;;1.00;;
6671;SDS011;3372;48.690;12.362;2023-12-20T11:57:20;2.30;;;0.73;;
6671;SDS011;3372;48.690;12.362;2023-12-20T11:59:45;1.27;;;0.80;;
6671;SDS011;3372;48.690;12.362;2023-12-20T12:02:11;1.88;;;0.80;;
6671;SDS011;3372;48.690;12.362;2023-12-20T12:04:37;1.80;;;1.00;;
6671;SDS011;3372;48.690;12.362;2023-12-20T12:07:04;2.58;;;1.20;;
6671;SDS011;3372;48.690;12.362;2023-12-20T12:09:29;2.15;;;1.13;;
6671;SDS011;3372;48.690;12.362;2023-12-20T12:11:55;2.63;;;1.50;;
6671;SDS011;3372;48.690;12.362;2023-12-20T12:14:20;4.43;;;1.90;;
6671;SDS011;3372;48.690;12.362;2023-12-20T12:16:46;10.85;;;8.93;;
6671;SDS011;3372;48.690;12.362;2023-12-20T12:19:22;2.25;;;1.08;;
6671;SDS011;3372;48.690;12.362;2023-12-20T12:21:49;3.10;;;1.83;;
6671;SDS011;3372;48.690;12.362;2023-12-20T12:24:36;2.88;;;1.20;;
6671;SDS011;3372;48.690;12.362;2023-12-20T12:27:02;3.75;;;1.55;;
6671;SDS011;3372;48.690;12.362;2023-12-20T12:29:28;3.80;;;1.73;;
6671;SDS011;3372;48.690;12.362;2023-12-20T12:31:54;3.70;;;1.25;;
6671;SDS011;3372;48.690;12.362;2023-12-20T12:34:20;2.60;;;1.70;;
6671;SDS011;3372;48.690;12.362;2023-12-20T12:36:45;2.53;;;1.50;;
6671;SDS011;3372;48.690;12.362;2023-12-20T12:39:17;3.28;;;1.60;;
6671;SDS011;3372;48.690;12.362;2023-12-20T12:41:43;3.20;;;1.23;;
6671;SDS011;3372;48.690;12.362;2023-12-20T12:44:09;3.78;;;1.27;;
6671;SDS011;3372;48.690;12.362;2023-12-20T12:46:34;2.42;;;1.35;;
6671;SDS011;3372;48.690;12.362;2023-12-20T12:49:00;3.22;;;1.25;;
6671;SDS011;3372;48.690;12.362;2023-12-20T12:51:25;2.95;;;1.20;;
6671;SDS011;3372;48.690;12.362;2023-12-20T12:53:51;3.13;;;1.48;;
6671;SDS011;3372;48.690;12.362;2023-12-20T12:56:16;3.38;;;1.50;;
6671;SDS011;3372;48.690;12.362;2023-12-20T12:58:42;4.18;;;1.48;;
6671;SDS011;3372;48.690;12.362;2023-12-20T13:01:08;3.58;;;2.17;;
6671;SDS011;3372;48.690;12.362;2023-12-20T13:03:35;4.53;;;1.90;;
6671;SDS011;3372;48.690;12.362;2023-12-20T13:06:01;5.55;;;1.73;;
6671;SDS011;3372;48.690;12.362;2023-12-20T13:08:28;2.45;;;1.33;;
6671;SDS011;3372;48.690;12.362;2023-12-20T13:10:54;4.28;;;1.80;;
6671;SDS011;3372;48.690;12.362;2023-12-20T13:13:20;3.55;;;2.05;;
6671;SDS011;3372;48.690;12.362;2023-12-20T13:15:46;7.00;;;3.53;;
6671;SDS011;3372;48.690;12.362;2023-12-20T13:18:16;8.32;;;4.78;;
6671;SDS011;3372;48.690;12.362;2023-12-20T13:20:43;18.02;;;9.05;;
6671;SDS011;3372;48.690;12.362;2023-12-20T13:23:09;4.85;;;2.63;;
6671;SDS011;3372;48.690;12.362;2023-12-20T13:25:34;3.40;;;1.95;;
6671;SDS011;3372;48.690;12.362;2023-12-20T13:28:00;6.18;;;2.72;;
6671;SDS011;3372;48.690;12.362;2023-12-20T13:30:26;3.40;;;2.10;;
6671;SDS011;3372;48.690;12.362;2023-12-20T13:32:52;4.40;;;2.03;;
6671;SDS011;3372;48.690;12.362;2023-12-20T13:35:17;6.88;;;3.55;;
6671;SDS011;3372;48.690;12.362;2023-12-20T13:37:43;7.88;;;3.40;;
6671;SDS011;3372;48.690;12.362;2023-12-20T13:40:09;5.38;;;2.53;;
6671;SDS011;3372;48.690;12.362;2023-12-20T13:42:35;7.68;;;3.60;;
6671;SDS011;3372;48.690;12.362;2023-12-20T13:45:01;7.00;;;2.97;;
6671;SDS011;3372;48.690;12.362;2023-12-20T13:47:26;5.25;;;2.70;;
6671;SDS011;3372;48.690;12.362;2023-12-20T13:49:52;8.13;;;4.15;;
6671;SDS011;3372;48.690;12.362;2023-12-20T13:52:17;7.32;;;3.00;;
6671;SDS011;3372;48.690;12.362;2023-12-20T13:54:43;6.88;;;3.13;;
6671;SDS011;3372;48.690;12.362;2023-12-20T13:57:09;10.23;;;4.85;;
6671;SDS011;3372;48.690;12.362;2023-12-20T13:59:34;4.07;;;2.00;;
6671;SDS011;3372;48.690;12.362;2023-12-20T14:02:00;5.00;;;1.20;;
6671;SDS011;3372;48.690;12.362;2023-12-20T14:04:28;3.40;;;1.90;;
6671;SDS011;3372;48.690;12.362;2023-12-20T14:06:54;3.00;;;1.17;;
6671;SDS011;3372;48.690;12.362;2023-12-20T14:09:19;2.42;;;1.10;;
6671;SDS011;3372;48.690;12.362;2023-12-20T14:11:45;4.45;;;1.45;;
6671;SDS011;3372;48.690;12.362;2023-12-20T14:14:10;2.38;;;0.90;;
6671;SDS011;3372;48.690;12.362;2023-12-20T14:16:36;2.60;;;1.00;;
6671;SDS011;3372;48.690;12.362;2023-12-20T14:19:03;3.65;;;0.90;;
6671;SDS011;3372;48.690;12.362;2023-12-20T14:21:28;3.47;;;0.65;;
6671;SDS011;3372;48.690;12.362;2023-12-20T14:23:54;2.67;;;0.57;;
6671;SDS011;3372;48.690;12.362;2023-12-20T14:26:20;4.85;;;1.10;;
6671;SDS011;3372;48.690;12.362;2023-12-20T14:28:45;2.78;;;0.85;;
6671;SDS011;3372;48.690;12.362;2023-12-20T14:31:11;3.60;;;1.00;;
6671;SDS011;3372;48.690;12.362;2023-12-20T14:33:36;5.47;;;1.00;;
6671;SDS011;3372;48.690;12.362;2023-12-20T14:36:04;6.25;;;1.48;;
6671;SDS011;3372;48.690;12.362;2023-12-20T14:38:33;5.95;;;1.60;;
6671;SDS011;3372;48.690;12.362;2023-12-20T14:40:59;3.88;;;1.25;;
6671;SDS011;3372;48.690;12.362;2023-12-20T14:43:25;2.13;;;0.85;;
6671;SDS011;3372;48.690;12.362;2023-12-20T14:45:54;6.70;;;0.95;;
6671;SDS011;3372;48.690;12.362;2023-12-20T14:48:20;2.47;;;1.00;;
6671;SDS011;3372;48.690;12.362;2023-12-20T14:50:46;6.50;;;1.65;;
6671;SDS011;3372;48.690;12.362;2023-12-20T14:53:13;5.25;;;1.23;;
6671;SDS011;3372;48.690;12.362;2023-12-20T14:55:40;4.07;;;1.13;;
6671;SDS011;3372;48.690;12.362;2023-12-20T14:58:05;4.43;;;1.17;;
6671;SDS011;3372;48.690;12.362;2023-12-20T15:00:31;3.58;;;1.40;;
6671;SDS011;3372;48.690;12.362;2023-12-20T15:02:57;5.28;;;1.98;;
6671;SDS011;3372;48.690;12.362;2023-12-20T15:05:22;4.18;;;1.20;;
6671;SDS011;3372;48.690;12.362;2023-12-20T15:07:48;2.72;;;0.73;;
6671;SDS011;3372;48.690;12.362;2023-12-20T15:10:13;3.42;;;0.88;;